createdAt,value
2024-01-27T00:02:14.698Z,1.30
2024-01-27T00:04:41.937Z,1.20
2024-01-27T00:07:09.417Z,1.20
2024-01-27T00:09:36.640Z,1.10
2024-01-27T00:12:03.973Z,1.00
2024-01-27T00:14:31.265Z,0.90
2024-01-27T00:16:58.365Z,0.80
2024-01-27T00:19:25.602Z,0.80
2024-01-27T00:21:52.766Z,0.80
2024-01-27T00:24:19.967Z,0.70
2024-01-27T00:26:47.339Z,0.60
2024-01-27T00:29:14.663Z,0.60
2024-01-27T00:31:41.788Z,0.60
2024-01-27T00:34:08.997Z,0.60
2024-01-27T00:36:38.169Z,0.50
2024-01-27T00:39:06.055Z,0.50
2024-01-27T00:41:33.239Z,0.50
2024-01-27T00:44:00.429Z,0.50
2024-01-27T00:46:27.670Z,0.50
2024-01-27T00:48:55.213Z,0.60
2024-01-27T00:51:22.485Z,0.60
2024-01-27T00:53:49.964Z,0.70
2024-01-27T00:56:17.219Z,0.80
2024-01-27T00:58:44.447Z,1.30
2024-01-27T01:01:11.942Z,1.70
2024-01-27T01:03:39.224Z,2.40
2024-01-27T01:06:06.547Z,3.10
2024-01-27T01:08:33.976Z,3.50
2024-01-27T01:11:01.115Z,3.80
2024-01-27T01:13:28.289Z,4.30
2024-01-27T01:15:55.517Z,4.70
2024-01-27T01:18:22.818Z,5.10
2024-01-27T01:20:50.239Z,5.30
2024-01-27T01:23:17.424Z,5.50
2024-01-27T01:25:45.471Z,5.60
2024-01-27T01:28:12.723Z,5.50
2024-01-27T01:30:39.992Z,5.50
2024-01-27T01:33:07.409Z,5.50
2024-01-27T01:35:34.691Z,5.40
2024-01-27T01:38:01.996Z,5.40
2024-01-27T01:40:29.209Z,5.40
2024-01-27T01:42:56.560Z,5.50
2024-01-27T01:45:23.698Z,5.60
2024-01-27T01:47:51.108Z,5.60
2024-01-27T01:50:19.364Z,5.70
2024-01-27T01:52:49.971Z,5.70
2024-01-27T01:55:18.084Z,5.70
2024-01-27T01:57:45.760Z,5.70
2024-01-27T02:00:15.110Z,5.80
2024-01-27T02:02:45.844Z,5.80
2024-01-27T02:05:14.402Z,5.80
2024-01-27T02:07:41.773Z,5.70
2024-01-27T02:10:16.938Z,5.70
2024-01-27T02:12:45.384Z,5.70
2024-01-27T02:15:14.625Z,5.60
2024-01-27T02:17:43.024Z,5.70
2024-01-27T02:20:10.889Z,5.80
2024-01-27T02:22:38.251Z,5.80
2024-01-27T02:25:05.881Z,5.80
2024-01-27T02:27:33.185Z,5.90
2024-01-27T02:30:00.614Z,5.90
2024-01-27T02:32:27.813Z,5.80
2024-01-27T02:34:54.978Z,5.70
2024-01-27T02:37:22.868Z,5.70
2024-01-27T02:39:50.029Z,5.70
2024-01-27T02:42:17.213Z,5.70
2024-01-27T02:44:44.390Z,5.70
2024-01-27T02:47:11.604Z,5.70
2024-01-27T02:49:38.800Z,5.50
2024-01-27T02:52:06.191Z,5.40
2024-01-27T02:54:33.475Z,5.40
2024-01-27T02:57:00.663Z,5.20
2024-01-27T02:59:28.019Z,5.10
2024-01-27T03:01:55.191Z,5.10
2024-01-27T03:04:23.330Z,5.00
2024-01-27T03:06:50.623Z,4.90
2024-01-27T03:09:17.904Z,4.70
2024-01-27T03:11:45.398Z,4.50
2024-01-27T03:14:12.667Z,4.50
2024-01-27T03:16:39.844Z,4.50
2024-01-27T03:19:07.924Z,4.40
2024-01-27T03:21:35.290Z,4.40
2024-01-27T03:24:02.834Z,4.40
2024-01-27T03:26:30.053Z,4.40
2024-01-27T03:28:57.302Z,4.40
2024-01-27T03:31:24.533Z,4.40
2024-01-27T03:33:51.779Z,4.40
2024-01-27T03:36:18.953Z,4.40
2024-01-27T03:38:46.345Z,4.40
2024-01-27T03:41:13.465Z,4.30
2024-01-27T03:43:40.641Z,4.30
2024-01-27T03:46:07.833Z,4.30
2024-01-27T03:48:36.596Z,4.30
2024-01-27T03:51:04.022Z,4.40
2024-01-27T03:53:31.183Z,4.40
2024-01-27T03:56:00.812Z,4.40
2024-01-27T03:58:28.250Z,4.40
2024-01-27T04:00:55.532Z,4.30
2024-01-27T04:03:22.866Z,4.30
2024-01-27T04:05:50.273Z,4.30
2024-01-27T04:08:17.649Z,4.30
2024-01-27T04:10:44.921Z,4.10
2024-01-27T04:13:12.076Z,4.00
2024-01-27T04:15:40.116Z,3.90
2024-01-27T04:18:11.011Z,3.80
2024-01-27T04:20:38.513Z,3.60
2024-01-27T04:23:05.888Z,3.50
2024-01-27T04:25:33.095Z,3.50
2024-01-27T04:28:00.242Z,3.40
2024-01-27T04:30:27.428Z,3.30
2024-01-27T04:32:54.747Z,3.20
2024-01-27T04:35:21.924Z,3.10
2024-01-27T04:37:49.101Z,3.10
2024-01-27T04:40:16.743Z,3.10
2024-01-27T04:42:44.016Z,3.10
2024-01-27T04:45:11.279Z,3.00
2024-01-27T04:47:38.668Z,2.90
2024-01-27T04:50:06.186Z,3.00
2024-01-27T04:52:33.534Z,3.10
2024-01-27T04:55:01.087Z,3.10
2024-01-27T04:57:28.492Z,3.20
2024-01-27T04:59:56.077Z,3.20
2024-01-27T05:02:23.255Z,3.10
2024-01-27T05:04:50.881Z,3.00
2024-01-27T05:07:18.056Z,2.80
2024-01-27T05:09:45.310Z,2.60
2024-01-27T05:12:12.542Z,2.50
2024-01-27T05:14:45.744Z,2.50
2024-01-27T05:17:12.913Z,2.50
2024-01-27T05:19:40.244Z,2.40
2024-01-27T05:22:07.779Z,2.30
2024-01-27T05:24:35.171Z,2.10
2024-01-27T05:27:02.613Z,1.90
2024-01-27T05:29:30.071Z,1.70
2024-01-27T05:31:57.242Z,1.70
2024-01-27T05:34:24.553Z,1.60
2024-01-27T05:36:51.689Z,1.50
2024-01-27T05:39:18.882Z,1.40
2024-01-27T05:41:46.086Z,1.40
2024-01-27T05:44:13.415Z,1.40
2024-01-27T05:46:40.727Z,1.40
2024-01-27T05:49:08.036Z,1.40
2024-01-27T05:51:35.385Z,1.40
2024-01-27T05:54:03.549Z,1.50
2024-01-27T05:56:30.828Z,1.50
2024-01-27T05:58:57.989Z,1.50
2024-01-27T06:01:25.277Z,1.50
2024-01-27T06:03:52.857Z,1.50
2024-01-27T06:06:20.298Z,1.40
2024-01-27T06:08:47.574Z,1.40
2024-01-27T06:11:14.862Z,1.40
2024-01-27T06:13:42.176Z,1.30
2024-01-27T06:16:10.811Z,1.30
2024-01-27T06:18:38.693Z,1.20
2024-01-27T06:21:07.269Z,1.10
2024-01-27T06:23:36.577Z,1.00
2024-01-27T06:26:11.469Z,0.90
2024-01-27T06:28:38.622Z,0.80
2024-01-27T06:31:06.018Z,0.80
2024-01-27T06:33:33.609Z,0.80
2024-01-27T06:36:00.904Z,0.90
2024-01-27T06:38:28.660Z,0.90
2024-01-27T06:40:55.888Z,0.90
2024-01-27T06:43:22.996Z,0.80
2024-01-27T06:45:50.294Z,0.80
2024-01-27T06:48:17.631Z,0.80
2024-01-27T06:50:44.855Z,0.70
2024-01-27T06:53:12.148Z,0.80
2024-01-27T06:55:42.648Z,1.40
2024-01-27T06:58:11.388Z,2.90
2024-01-27T07:00:38.923Z,4.70
2024-01-27T07:03:06.633Z,6.30
2024-01-27T07:05:39.871Z,7.90
2024-01-27T07:08:08.644Z,8.50
2024-01-27T07:10:36.409Z,8.60
2024-01-27T07:13:03.937Z,9.70
2024-01-27T07:15:31.226Z,10.60
2024-01-27T07:17:58.531Z,11.20
2024-01-27T07:20:25.893Z,11.60
2024-01-27T07:22:53.283Z,12.80
2024-01-27T07:25:20.431Z,13.20
2024-01-27T07:27:48.304Z,14.00
2024-01-27T07:30:17.251Z,14.80
2024-01-27T07:32:45.458Z,15.40
2024-01-27T07:35:12.804Z,16.00
2024-01-27T07:37:40.156Z,16.50
2024-01-27T07:40:07.770Z,16.60
2024-01-27T07:42:34.921Z,16.60
2024-01-27T07:45:02.459Z,17.00
2024-01-27T07:47:29.754Z,17.30
2024-01-27T07:49:56.982Z,17.60
2024-01-27T07:52:24.316Z,17.80
2024-01-27T07:54:51.495Z,18.20
2024-01-27T07:57:18.644Z,18.60
2024-01-27T07:59:45.886Z,18.40
2024-01-27T08:02:13.266Z,19.00
2024-01-27T08:04:40.534Z,19.10
2024-01-27T08:07:11.243Z,18.60
2024-01-27T08:09:39.981Z,18.30
2024-01-27T08:12:08.167Z,18.20
2024-01-27T08:14:36.817Z,17.90
2024-01-27T08:17:05.260Z,17.80
2024-01-27T08:19:32.965Z,18.30
2024-01-27T08:22:00.289Z,18.20
2024-01-27T08:24:27.690Z,18.30
2024-01-27T08:26:54.953Z,18.70
2024-01-27T08:29:22.097Z,18.90
2024-01-27T08:31:49.458Z,18.70
2024-01-27T08:34:17.325Z,18.40
2024-01-27T08:36:44.753Z,18.90
2024-01-27T08:39:13.742Z,18.80
2024-01-27T08:41:41.265Z,18.80
2024-01-27T08:44:08.414Z,18.60
2024-01-27T08:46:35.608Z,18.40
2024-01-27T08:49:02.871Z,18.70
2024-01-27T08:51:30.303Z,20.10
2024-01-27T08:53:57.695Z,20.60
2024-01-27T08:56:24.819Z,20.90
2024-01-27T08:58:53.745Z,22.00
2024-01-27T09:01:21.651Z,20.80
2024-01-27T09:03:48.962Z,21.00
2024-01-27T09:06:16.754Z,20.70
2024-01-27T09:08:43.972Z,20.80
2024-01-27T09:11:11.133Z,21.10
2024-01-27T09:13:38.364Z,21.50
2024-01-27T09:16:05.589Z,21.80
2024-01-27T09:18:32.955Z,21.40
2024-01-27T09:21:00.286Z,21.10
2024-01-27T09:23:27.473Z,21.20
2024-01-27T09:25:54.550Z,21.30
2024-01-27T09:28:21.763Z,21.60
2024-01-27T09:30:49.006Z,21.50
2024-01-27T09:33:18.751Z,22.40
2024-01-27T09:35:46.067Z,22.40
2024-01-27T09:38:15.492Z,22.10
2024-01-27T09:40:42.990Z,22.70
2024-01-27T09:43:15.116Z,22.30
2024-01-27T09:45:42.962Z,22.50
2024-01-27T09:48:13.689Z,22.50
2024-01-27T09:50:43.056Z,22.50
2024-01-27T09:53:11.270Z,22.50
2024-01-27T09:55:38.544Z,21.90
2024-01-27T09:58:06.694Z,20.80
2024-01-27T10:00:36.657Z,20.20
2024-01-27T10:03:07.315Z,19.50
2024-01-27T10:05:35.254Z,18.40
2024-01-27T10:08:02.456Z,18.20
2024-01-27T10:10:29.548Z,17.60
2024-01-27T10:12:59.978Z,16.90
2024-01-27T10:15:28.962Z,16.60
2024-01-27T10:18:14.312Z,16.50
2024-01-27T10:20:41.677Z,16.50
2024-01-27T10:23:13.517Z,16.40
2024-01-27T10:25:42.086Z,16.20
2024-01-27T10:28:10.163Z,16.10
2024-01-27T10:30:38.401Z,16.20
2024-01-27T10:33:05.939Z,16.10
2024-01-27T10:35:33.159Z,15.80
2024-01-27T10:38:00.508Z,15.30
2024-01-27T10:40:28.278Z,15.20
2024-01-27T10:43:11.214Z,15.20
2024-01-27T10:45:40.372Z,15.20
2024-01-27T10:48:10.862Z,15.10
2024-01-27T10:50:43.350Z,14.90
2024-01-27T10:53:32.277Z,14.80
2024-01-27T10:56:00.272Z,14.80
2024-01-27T10:58:29.383Z,14.30
2024-01-27T11:00:58.017Z,14.40
2024-01-27T11:03:26.910Z,14.40
2024-01-27T11:05:56.176Z,14.50
2024-01-27T11:08:29.518Z,14.70
2024-01-27T11:10:57.597Z,14.60
2024-01-27T11:13:26.203Z,14.50
2024-01-27T11:15:55.688Z,14.60
2024-01-27T11:18:23.391Z,14.70
2024-01-27T11:20:55.100Z,14.80
2024-01-27T11:23:32.097Z,14.80
2024-01-27T11:26:07.563Z,14.70
2024-01-27T11:28:34.924Z,14.70
2024-01-27T11:31:10.388Z,14.60
2024-01-27T11:33:46.715Z,14.60
2024-01-27T11:36:22.586Z,14.50
2024-01-27T11:38:50.966Z,14.60
2024-01-27T11:41:27.033Z,14.70
2024-01-27T11:43:56.131Z,14.60
2024-01-27T11:46:24.170Z,14.40
2024-01-27T11:48:51.700Z,14.40
2024-01-27T11:51:20.846Z,14.60
2024-01-27T11:53:48.349Z,14.80
2024-01-27T11:56:15.706Z,14.70
2024-01-27T11:58:51.419Z,14.70
2024-01-27T12:01:18.951Z,14.60
2024-01-27T12:03:47.305Z,14.70
2024-01-27T12:06:15.662Z,14.70
2024-01-27T12:08:51.583Z,14.80
2024-01-27T12:11:22.232Z,14.90
2024-01-27T12:13:56.013Z,14.90
2024-01-27T12:16:24.019Z,15.00
2024-01-27T12:18:56.060Z,14.90
2024-01-27T12:21:25.158Z,15.00
2024-01-27T12:23:53.337Z,14.90
2024-01-27T12:26:23.545Z,14.80
2024-01-27T12:28:50.873Z,14.80
2024-01-27T12:31:20.017Z,14.80
2024-01-27T12:34:03.364Z,14.70
2024-01-27T12:36:30.775Z,14.60
2024-01-27T12:39:01.463Z,14.50
2024-01-27T12:41:30.519Z,14.50
2024-01-27T12:43:57.956Z,14.50
2024-01-27T12:46:25.411Z,14.60
2024-01-27T12:48:52.979Z,14.60
2024-01-27T12:51:20.789Z,14.50
2024-01-27T12:53:48.471Z,14.50
2024-01-27T12:56:16.723Z,14.50
2024-01-27T12:58:44.408Z,14.50
2024-01-27T13:01:11.848Z,14.50
2024-01-27T13:03:41.781Z,14.50
2024-01-27T13:06:12.234Z,14.40
2024-01-27T13:08:39.912Z,14.40
2024-01-27T13:11:06.931Z,14.30
2024-01-27T13:13:34.252Z,14.20
2024-01-27T13:16:01.660Z,14.30
2024-01-27T13:18:28.980Z,14.20
2024-01-27T13:20:56.303Z,14.20
2024-01-27T13:23:23.662Z,14.20
2024-01-27T13:26:02.604Z,14.20
2024-01-27T13:28:38.590Z,14.10
2024-01-27T13:31:06.380Z,14.10
2024-01-27T13:33:35.483Z,13.90
2024-01-27T13:36:03.370Z,13.80
2024-01-27T13:38:30.614Z,13.70
2024-01-27T13:40:57.814Z,13.70
2024-01-27T13:43:25.017Z,13.60
2024-01-27T13:45:52.678Z,13.60
2024-01-27T13:48:20.414Z,13.50
2024-01-27T13:50:47.931Z,13.30
2024-01-27T13:53:15.223Z,13.10
2024-01-27T13:55:44.052Z,13.00
2024-01-27T13:58:11.720Z,12.90
2024-01-27T14:00:39.354Z,12.80
2024-01-27T14:03:06.789Z,12.70
2024-01-27T14:05:34.076Z,12.50
2024-01-27T14:08:01.432Z,12.40
2024-01-27T14:10:28.776Z,12.30
2024-01-27T14:12:55.949Z,12.20
2024-01-27T14:15:22.984Z,12.20
2024-01-27T14:17:50.504Z,12.20
2024-01-27T14:20:20.775Z,12.10
2024-01-27T14:22:48.012Z,12.00
2024-01-27T14:25:15.753Z,11.90
2024-01-27T14:27:43.861Z,11.90
2024-01-27T14:30:12.049Z,11.80
2024-01-27T14:32:40.110Z,11.70
2024-01-27T14:35:07.897Z,11.60
2024-01-27T14:37:35.316Z,11.50
2024-01-27T14:40:02.574Z,11.40
2024-01-27T14:42:31.987Z,11.20
2024-01-27T14:45:00.695Z,11.20
2024-01-27T14:47:28.196Z,11.10
2024-01-27T14:49:55.545Z,11.00
2024-01-27T14:52:24.117Z,11.00
2024-01-27T14:54:51.376Z,10.90
2024-01-27T14:57:18.537Z,10.80
2024-01-27T14:59:51.083Z,10.80
2024-01-27T15:02:21.493Z,10.70
2024-01-27T15:04:50.964Z,10.60
2024-01-27T15:07:19.092Z,10.50
2024-01-27T15:09:46.279Z,10.40
2024-01-27T15:12:13.883Z,10.30
2024-01-27T15:14:40.970Z,10.20
2024-01-27T15:17:08.592Z,10.10
2024-01-27T15:19:40.714Z,9.90
2024-01-27T15:22:10.104Z,9.90
2024-01-27T15:24:39.398Z,9.80
2024-01-27T15:27:11.339Z,9.70
2024-01-27T15:29:39.672Z,9.60
2024-01-27T15:32:08.474Z,9.50
2024-01-27T15:34:35.817Z,9.40
2024-01-27T15:37:03.365Z,9.30
2024-01-27T15:39:30.796Z,9.10
2024-01-27T15:41:59.280Z,9.10
2024-01-27T15:44:26.516Z,9.00
2024-01-27T15:46:53.718Z,8.90
2024-01-27T15:49:22.074Z,8.70
2024-01-27T15:51:49.239Z,8.70
2024-01-27T15:54:19.401Z,8.50
2024-01-27T15:56:48.005Z,8.40
2024-01-27T15:59:15.672Z,8.20
2024-01-27T16:01:43.456Z,8.00
2024-01-27T16:04:10.777Z,7.90
2024-01-27T16:06:38.397Z,7.70
2024-01-27T16:09:05.655Z,7.60
2024-01-27T16:11:33.065Z,7.50
2024-01-27T16:14:00.395Z,7.40
2024-01-27T16:16:30.087Z,7.30
2024-01-27T16:18:57.610Z,7.30
2024-01-27T16:21:26.115Z,7.20
2024-01-27T16:23:53.415Z,7.20
2024-01-27T16:26:20.681Z,7.10
2024-01-27T16:28:48.452Z,7.00
2024-01-27T16:31:16.006Z,6.80
2024-01-27T16:33:43.511Z,6.70
2024-01-27T16:36:11.070Z,6.60
2024-01-27T16:38:38.230Z,6.40
2024-01-27T16:41:05.398Z,6.30
2024-01-27T16:43:32.601Z,6.10
2024-01-27T16:46:00.175Z,6.10
2024-01-27T16:48:27.421Z,6.00
2024-01-27T16:50:54.687Z,5.90
2024-01-27T16:53:21.954Z,5.80
2024-01-27T16:55:49.072Z,5.70
2024-01-27T16:58:16.302Z,5.60
2024-01-27T17:00:43.777Z,5.50
2024-01-27T17:03:11.120Z,5.40
2024-01-27T17:05:38.337Z,5.40
2024-01-27T17:08:05.900Z,5.20
2024-01-27T17:10:33.105Z,5.10
2024-01-27T17:13:00.361Z,5.00
2024-01-27T17:15:27.727Z,4.90
2024-01-27T17:17:55.050Z,4.80
2024-01-27T17:20:23.322Z,4.70
2024-01-27T17:22:50.778Z,4.70
2024-01-27T17:25:18.359Z,4.70
2024-01-27T17:27:45.600Z,4.60
2024-01-27T17:30:14.760Z,4.50
2024-01-27T17:32:44.307Z,4.50
2024-01-27T17:35:11.770Z,4.40
2024-01-27T17:37:38.920Z,4.30
2024-01-27T17:40:07.630Z,4.20
2024-01-27T17:42:37.198Z,4.00
2024-01-27T17:45:06.565Z,3.90
2024-01-27T17:47:37.431Z,3.90
2024-01-27T17:50:06.776Z,3.80
2024-01-27T17:52:34.281Z,3.90
2024-01-27T17:55:01.409Z,4.00
2024-01-27T17:57:30.332Z,4.00
2024-01-27T17:59:57.478Z,3.90
2024-01-27T18:02:27.407Z,3.80
2024-01-27T18:04:55.573Z,3.70
2024-01-27T18:07:23.076Z,3.70
2024-01-27T18:09:50.365Z,3.60
2024-01-27T18:12:17.703Z,3.60
2024-01-27T18:14:44.871Z,3.60
2024-01-27T18:17:12.051Z,3.60
2024-01-27T18:19:39.320Z,3.50
2024-01-27T18:22:07.922Z,3.50
2024-01-27T18:24:35.275Z,3.50
2024-01-27T18:27:03.210Z,3.50
2024-01-27T18:29:30.648Z,3.50
2024-01-27T18:31:59.844Z,3.60
2024-01-27T18:34:27.363Z,3.50
2024-01-27T18:36:54.531Z,3.60
2024-01-27T18:39:21.729Z,3.60
2024-01-27T18:41:49.075Z,3.80
2024-01-27T18:44:18.229Z,3.80
2024-01-27T18:46:45.418Z,3.50
2024-01-27T18:49:15.178Z,3.10
2024-01-27T18:51:44.136Z,2.90
2024-01-27T18:54:15.865Z,2.70
2024-01-27T18:56:43.033Z,2.40
2024-01-27T18:59:10.219Z,2.30
2024-01-27T19:01:37.981Z,2.00
2024-01-27T19:04:05.252Z,2.00
2024-01-27T19:06:33.060Z,1.90
2024-01-27T19:09:01.405Z,1.80
2024-01-27T19:11:31.190Z,1.80
2024-01-27T19:13:58.710Z,1.80
2024-01-27T19:16:25.813Z,1.80
2024-01-27T19:18:53.274Z,1.80
2024-01-27T19:21:21.106Z,1.70
2024-01-27T19:23:48.536Z,1.70
2024-01-27T19:26:15.854Z,1.70
2024-01-27T19:28:43.122Z,1.60
2024-01-27T19:31:10.387Z,1.60
2024-01-27T19:33:37.646Z,1.60
2024-01-27T19:36:05.194Z,1.60
2024-01-27T19:38:34.101Z,1.80
2024-01-27T19:41:11.709Z,1.80
2024-01-27T19:43:47.440Z,1.80
2024-01-27T19:46:15.066Z,1.80
2024-01-27T19:48:43.017Z,1.70
2024-01-27T19:51:10.750Z,1.60
2024-01-27T19:53:37.972Z,1.50
2024-01-27T19:56:09.499Z,1.50
2024-01-27T19:58:37.075Z,1.40
2024-01-27T20:01:04.567Z,1.40
2024-01-27T20:03:31.985Z,1.40
2024-01-27T20:05:59.683Z,1.30
2024-01-27T20:08:26.867Z,1.40
2024-01-27T20:10:54.027Z,1.30
2024-01-27T20:13:21.167Z,1.20
2024-01-27T20:15:48.625Z,1.10
2024-01-27T20:18:15.954Z,1.10
2024-01-27T20:20:43.117Z,1.00
2024-01-27T20:23:10.411Z,0.90
2024-01-27T20:25:37.660Z,0.80
2024-01-27T20:28:05.866Z,0.60
2024-01-27T20:30:34.609Z,0.60
2024-01-27T20:33:02.030Z,0.50
2024-01-27T20:35:30.410Z,0.50
2024-01-27T20:37:57.784Z,0.50
2024-01-27T20:40:25.955Z,0.40
2024-01-27T20:42:53.313Z,0.40
2024-01-27T20:45:20.607Z,0.40
2024-01-27T20:47:50.602Z,0.40
2024-01-27T20:50:18.055Z,0.40
2024-01-27T20:52:45.389Z,0.30
2024-01-27T20:55:12.551Z,0.30
2024-01-27T20:57:39.814Z,0.30
2024-01-27T21:00:08.423Z,0.30
2024-01-27T21:02:35.650Z,0.20
2024-01-27T21:05:02.962Z,0.20
2024-01-27T21:07:30.186Z,0.10
2024-01-27T21:09:57.463Z,0.10
2024-01-27T21:12:24.728Z,0.10
2024-01-27T21:14:51.925Z,0.00
2024-01-27T21:17:19.188Z,0.00
2024-01-27T21:19:49.997Z,0.00
2024-01-27T21:22:18.173Z,0.00
2024-01-27T21:24:45.712Z,0.00
2024-01-27T21:27:13.093Z,0.00
2024-01-27T21:29:40.210Z,0.00
2024-01-27T21:32:07.641Z,0.00
2024-01-27T21:34:34.835Z,-0.10
2024-01-27T21:37:02.034Z,-0.10
2024-01-27T21:39:29.218Z,-0.20
2024-01-27T21:41:56.402Z,-0.30
2024-01-27T21:44:23.737Z,-0.30
2024-01-27T21:46:50.972Z,-0.40
2024-01-27T21:49:18.171Z,-0.40
2024-01-27T21:51:49.718Z,-0.40
2024-01-27T21:54:17.618Z,-0.40
2024-01-27T21:56:45.627Z,-0.40
2024-01-27T21:59:13.041Z,-0.40
2024-01-27T22:01:42.343Z,-0.40
2024-01-27T22:04:10.154Z,-0.30
2024-01-27T22:06:37.629Z,-0.20
2024-01-27T22:09:04.916Z,-0.30
2024-01-27T22:11:32.153Z,-0.40
2024-01-27T22:13:59.897Z,-0.40
2024-01-27T22:16:27.862Z,-0.50
2024-01-27T22:18:55.473Z,-0.50
2024-01-27T22:21:22.787Z,-0.60
2024-01-27T22:23:49.967Z,-0.70
2024-01-27T22:26:17.190Z,-0.70
2024-01-27T22:28:44.379Z,-0.70
2024-01-27T22:31:11.601Z,-0.80
2024-01-27T22:33:38.841Z,-0.90
2024-01-27T22:36:07.710Z,-0.90
2024-01-27T22:38:34.900Z,-0.90
2024-01-27T22:41:02.401Z,-0.80
2024-01-27T22:43:29.637Z,-0.80
2024-01-27T22:45:56.857Z,-0.80
2024-01-27T22:48:24.066Z,-0.80
2024-01-27T22:50:51.364Z,-0.90
2024-01-27T22:53:18.615Z,-0.90
2024-01-27T22:55:45.694Z,-1.00
2024-01-27T22:58:12.992Z,-1.00
2024-01-27T23:00:41.080Z,-1.00
2024-01-27T23:03:12.301Z,-1.10
2024-01-27T23:05:39.813Z,-1.00
2024-01-27T23:08:07.307Z,-1.00
2024-01-27T23:10:35.297Z,-1.10
2024-01-27T23:13:04.238Z,-1.00
2024-01-27T23:15:31.738Z,-1.00
2024-01-27T23:17:59.029Z,-1.00
2024-01-27T23:20:26.325Z,-1.00
2024-01-27T23:22:53.794Z,-1.00
2024-01-27T23:25:21.542Z,-1.00
2024-01-27T23:27:48.900Z,-1.10
2024-01-27T23:30:16.254Z,-1.10
2024-01-27T23:32:44.153Z,-1.00
2024-01-27T23:35:12.154Z,-1.00
2024-01-27T23:37:39.594Z,-1.00
2024-01-27T23:40:07.729Z,-1.00
2024-01-27T23:42:37.489Z,-1.00
2024-01-27T23:45:05.441Z,-1.10
2024-01-27T23:47:32.664Z,-1.00
2024-01-27T23:50:00.327Z,-1.10
2024-01-27T23:52:28.721Z,-1.20
2024-01-27T23:54:55.976Z,-1.20
2024-01-27T23:57:23.262Z,-1.20
2024-01-27T23:59:52.145Z,-1.20
